FMEP/ZSE METAR and TAF weather

Enter ICAO airport designator
Station Type Date Time Source
FMEP METAR 2021/09/25 12:30 UTC NOAA

FMEP 251230Z AUTO 12028KT CAVOK 24/17 Q1019 BECMG 13030G40KT


Station Type Date Time Source
FMEP Decoded METAR 2021/09/25 12:30 UTC NOAA

Saint-Pierre, Reunion (FMEP) 21-20S 055-29E 53M
Sep 25, 2021 - 08:30 AM EDT / 2021.09.25 1230 UTC
Wind: from the ESE (120 degrees) at 32 MPH (28 KT):0
Visibility: greater than 7 mile(s):0
Temperature: 75 F (24 C)
Dew Point: 62 F (17 C)
Relative Humidity: 64%
Pressure (altimeter): 30.09 in. Hg (1019 hPa)
ob: FMEP 251230Z AUTO 12028KT CAVOK 24/17 Q1019 BECMG 13030G40KT
cycle: 12

Station Type Date Time Source
FMEP TAF 2020/08/08 06:00 UTC NOAA

TAF FMEP 080500Z 0806/0815 27010KT 9999 FEW030

Example: see airport list